createdAt,value
2018-06-12T00:01:57.147Z,94.40
2018-06-12T00:04:29.247Z,94.90
2018-06-12T00:06:57.041Z,94.00
2018-06-12T00:09:24.804Z,94.10
2018-06-12T00:11:52.485Z,94.70
2018-06-12T00:14:20.381Z,94.20
2018-06-12T00:16:48.030Z,94.30
2018-06-12T00:19:15.752Z,93.70
2018-06-12T00:21:43.652Z,94.50
2018-06-12T00:24:11.349Z,94.80
2018-06-12T00:26:38.956Z,94.60
2018-06-12T00:29:06.568Z,94.60
2018-06-12T00:31:34.302Z,94.60
2018-06-12T00:34:02.068Z,94.60
2018-06-12T00:36:29.742Z,94.80
2018-06-12T00:38:57.464Z,94.30
2018-06-12T00:41:25.106Z,94.80
2018-06-12T00:43:52.883Z,94.00
2018-06-12T00:46:20.537Z,94.50
2018-06-12T00:48:48.259Z,95.00
2018-06-12T00:51:15.957Z,94.80
2018-06-12T00:53:43.877Z,95.00
2018-06-12T00:56:15.929Z,95.10
2018-06-12T00:58:43.577Z,95.00
2018-06-12T01:01:20.083Z,94.80
2018-06-12T01:03:47.877Z,95.30
2018-06-12T01:06:15.546Z,95.20
2018-06-12T01:08:43.327Z,94.80
2018-06-12T01:11:10.989Z,94.90
2018-06-12T01:13:38.657Z,94.80
2018-06-12T01:16:06.333Z,94.90
2018-06-12T01:18:34.112Z,95.30
2018-06-12T01:21:01.679Z,95.10
2018-06-12T01:23:29.365Z,95.00
2018-06-12T01:25:56.970Z,95.00
2018-06-12T01:28:24.650Z,95.20
2018-06-12T01:30:52.266Z,95.00
2018-06-12T01:33:20.032Z,94.90
2018-06-12T01:35:47.611Z,94.80
2018-06-12T01:38:15.315Z,95.00
2018-06-12T01:40:42.949Z,94.90
2018-06-12T01:43:10.723Z,95.00
2018-06-12T01:45:38.337Z,94.90
2018-06-12T01:48:05.989Z,95.00
2018-06-12T01:50:33.595Z,94.70
2018-06-12T01:53:01.348Z,95.00
2018-06-12T01:55:28.999Z,94.70
2018-06-12T01:57:56.690Z,95.00
2018-06-12T02:00:24.293Z,94.90
2018-06-12T02:02:59.903Z,95.00
2018-06-12T02:05:27.573Z,95.10
2018-06-12T02:07:55.206Z,95.00
2018-06-12T02:10:23.009Z,95.00
2018-06-12T02:12:50.659Z,95.40
2018-06-12T02:15:18.314Z,95.50
2018-06-12T02:17:45.990Z,95.60
2018-06-12T02:20:14.176Z,95.50
2018-06-12T02:22:42.056Z,96.10
2018-06-12T02:25:09.724Z,95.40
2018-06-12T02:27:37.364Z,95.30
2018-06-12T02:30:04.990Z,95.60
2018-06-12T02:32:32.672Z,95.40
2018-06-12T02:35:00.294Z,95.20
2018-06-12T02:37:27.909Z,95.50
2018-06-12T02:39:55.556Z,95.30
2018-06-12T02:42:23.394Z,95.70
2018-06-12T02:44:51.113Z,95.40
2018-06-12T02:47:18.752Z,95.50
2018-06-12T02:49:46.436Z,95.50
2018-06-12T02:52:14.120Z,95.20
2018-06-12T02:54:41.699Z,95.20
2018-06-12T02:57:09.313Z,94.70
2018-06-12T02:59:37.052Z,95.10
2018-06-12T03:02:04.656Z,94.80
2018-06-12T03:04:32.467Z,94.70
2018-06-12T03:07:00.419Z,94.00
2018-06-12T03:09:28.069Z,94.10
2018-06-12T03:11:55.683Z,94.00
2018-06-12T03:14:23.409Z,94.40
2018-06-12T03:17:07.715Z,94.30
2018-06-12T03:19:35.424Z,93.90
2018-06-12T03:22:03.214Z,94.10
2018-06-12T03:24:30.881Z,93.80
2018-06-12T03:26:58.567Z,94.00
2018-06-12T03:29:26.327Z,94.40
2018-06-12T03:31:53.995Z,94.10
2018-06-12T03:34:21.649Z,94.30
2018-06-12T03:36:49.327Z,93.60
2018-06-12T03:39:16.992Z,93.80
2018-06-12T03:41:45.108Z,94.00
2018-06-12T03:44:12.717Z,93.80
2018-06-12T03:46:40.322Z,93.70
2018-06-12T03:49:07.945Z,94.00
2018-06-12T03:51:35.534Z,94.70
2018-06-12T03:54:03.508Z,94.90
2018-06-12T03:56:31.151Z,94.40
2018-06-12T03:58:58.899Z,94.50
2018-06-12T04:01:26.507Z,94.30
2018-06-12T04:03:54.144Z,94.40
2018-06-12T04:06:21.820Z,94.40
2018-06-12T04:08:49.547Z,94.40
2018-06-12T04:11:17.193Z,94.70
2018-06-12T04:13:44.834Z,94.70
2018-06-12T04:16:12.939Z,94.40
2018-06-12T04:18:40.556Z,94.10
2018-06-12T04:21:08.235Z,94.10
2018-06-12T04:23:35.905Z,94.30
2018-06-12T04:26:04.693Z,94.10
2018-06-12T04:28:32.375Z,94.30
2018-06-12T04:31:00.162Z,94.10
2018-06-12T04:33:27.848Z,93.90
2018-06-12T04:35:55.518Z,93.60
2018-06-12T04:38:23.185Z,93.10
2018-06-12T04:40:52.156Z,92.90
2018-06-12T04:43:19.923Z,93.00
2018-06-12T04:45:47.764Z,92.90
2018-06-12T04:48:15.462Z,93.10
2018-06-12T04:50:43.058Z,93.10
2018-06-12T04:53:10.720Z,92.90
2018-06-12T04:55:38.391Z,93.20
2018-06-12T04:58:06.011Z,92.80
2018-06-12T05:00:33.707Z,92.50
2018-06-12T05:03:01.495Z,93.10
2018-06-12T05:05:29.377Z,92.90
2018-06-12T05:07:56.981Z,93.00
2018-06-12T05:10:24.643Z,92.90
2018-06-12T05:12:52.273Z,92.50
2018-06-12T05:15:20.182Z,92.90
2018-06-12T05:17:47.900Z,92.60
2018-06-12T05:20:15.524Z,92.80
2018-06-12T05:22:43.504Z,92.70
2018-06-12T05:25:11.179Z,92.70
2018-06-12T05:27:38.941Z,92.80
2018-06-12T05:30:06.567Z,92.70
2018-06-12T05:32:34.189Z,92.50
2018-06-12T05:35:01.822Z,92.60
2018-06-12T05:37:29.515Z,92.50
2018-06-12T05:39:57.206Z,92.80
2018-06-12T05:42:24.843Z,92.40
2018-06-12T05:44:52.507Z,92.20
2018-06-12T05:47:20.161Z,92.50
2018-06-12T05:49:47.819Z,92.50
2018-06-12T05:52:15.666Z,92.70
2018-06-12T05:54:44.258Z,92.60
2018-06-12T05:57:12.082Z,92.70
2018-06-12T05:59:39.734Z,92.50
2018-06-12T06:02:07.401Z,92.40
2018-06-12T06:04:35.067Z,92.70
2018-06-12T06:07:02.675Z,92.60
2018-06-12T06:09:34.326Z,92.50
2018-06-12T06:12:02.042Z,92.70
2018-06-12T06:14:29.708Z,92.40
2018-06-12T06:16:57.479Z,92.50
2018-06-12T06:19:25.042Z,92.50
2018-06-12T06:21:52.752Z,92.50
2018-06-12T06:24:20.399Z,92.10
2018-06-12T06:26:48.118Z,92.40
2018-06-12T06:29:16.117Z,91.60
2018-06-12T06:31:43.955Z,92.40
2018-06-12T06:34:11.501Z,91.80
2018-06-12T06:36:41.214Z,91.70
2018-06-12T06:39:09.119Z,92.10
2018-06-12T06:41:36.744Z,92.00
2018-06-12T06:44:04.451Z,92.00
2018-06-12T06:46:32.120Z,92.60
2018-06-12T06:48:59.828Z,92.30
2018-06-12T06:51:27.470Z,93.20
2018-06-12T06:53:55.218Z,93.80
2018-06-12T06:56:22.815Z,93.50
2018-06-12T06:58:50.501Z,93.60
2018-06-12T07:01:18.513Z,93.60
2018-06-12T07:03:46.357Z,93.30
2018-06-12T07:06:14.221Z,93.20
2018-06-12T07:08:42.081Z,93.50
2018-06-12T07:11:09.839Z,93.50
2018-06-12T07:13:37.514Z,93.30
2018-06-12T07:16:05.412Z,93.40
2018-06-12T07:18:33.121Z,93.30
2018-06-12T07:21:08.272Z,93.10
2018-06-12T07:23:36.002Z,92.40
2018-06-12T07:26:06.364Z,92.90
2018-06-12T07:28:34.162Z,92.20
2018-06-12T07:31:02.010Z,92.10
2018-06-12T07:33:29.709Z,91.80
2018-06-12T07:35:57.565Z,92.20
2018-06-12T07:38:25.315Z,92.10
2018-06-12T07:40:53.298Z,91.80
2018-06-12T07:43:20.994Z,91.30
2018-06-12T07:45:48.616Z,91.70
2018-06-12T07:48:16.304Z,91.30
2018-06-12T07:50:48.170Z,91.40
2018-06-12T07:53:15.894Z,91.50
2018-06-12T07:55:43.674Z,91.60
2018-06-12T07:58:11.410Z,91.70
2018-06-12T08:00:39.044Z,91.80
2018-06-12T08:05:46.200Z,92.20
2018-06-12T08:08:18.172Z,92.10
2018-06-12T08:11:15.674Z,92.80
2018-06-12T08:13:51.026Z,93.10
2018-06-12T08:16:20.164Z,93.40
2018-06-12T08:18:48.461Z,93.50
2018-06-12T08:21:17.458Z,93.80
2018-06-12T08:23:46.448Z,93.90
2018-06-12T08:26:18.739Z,93.70
2018-06-12T08:31:48.198Z,94.30
2018-06-12T08:34:16.385Z,94.90
2018-06-12T08:36:47.909Z,95.20
2018-06-12T08:44:21.262Z,95.50
2018-06-12T08:46:50.965Z,94.20
2018-06-12T08:49:19.244Z,93.80
2018-06-12T09:01:15.089Z,93.40
2018-06-12T09:03:47.008Z,93.00
2018-06-12T09:06:22.268Z,93.90
2018-06-12T09:11:46.249Z,94.00
2018-06-12T09:14:16.523Z,94.30
2018-06-12T09:32:10.646Z,95.30
2018-06-12T09:34:42.066Z,95.70
2018-06-12T09:37:09.895Z,95.40
2018-06-12T09:39:44.742Z,95.10
2018-06-12T09:42:21.110Z,94.00
2018-06-12T09:45:08.738Z,93.80
2018-06-12T09:47:43.490Z,93.70
2018-06-12T09:50:11.266Z,93.40
2018-06-12T09:52:39.779Z,92.90
2018-06-12T10:00:08.721Z,92.60
2018-06-12T10:02:37.466Z,92.40
2018-06-12T10:05:20.201Z,92.40
2018-06-12T10:07:48.623Z,91.70
2018-06-12T10:10:16.411Z,91.90
2018-06-12T13:21:15.746Z,70.40
2018-06-12T13:23:47.066Z,72.20
2018-06-12T13:26:23.115Z,72.30
2018-06-12T13:28:51.910Z,71.20
2018-06-12T13:31:19.565Z,72.30
2018-06-12T13:36:37.258Z,74.60
2018-06-12T13:39:05.582Z,74.60
2018-06-12T13:41:34.067Z,77.10
2018-06-12T13:44:02.484Z,76.30
2018-06-12T13:46:30.292Z,76.10
2018-06-12T13:48:57.826Z,76.50
2018-06-12T13:51:25.410Z,75.70
2018-06-12T13:53:53.014Z,77.00
2018-06-12T13:56:20.816Z,75.50
2018-06-12T13:58:49.429Z,76.10
2018-06-12T14:01:17.104Z,75.00
2018-06-12T14:03:44.730Z,75.40
2018-06-12T14:06:12.366Z,75.60
2018-06-12T14:11:26.350Z,74.60
2018-06-12T14:13:53.926Z,73.80
2018-06-12T14:16:21.570Z,73.60
2018-06-12T14:18:49.208Z,74.40
2018-06-12T14:21:16.994Z,75.70
2018-06-12T14:23:44.635Z,74.30
2018-06-12T14:26:12.276Z,74.70
2018-06-12T14:28:41.854Z,74.00
2018-06-12T14:31:09.459Z,75.70
2018-06-12T14:33:40.207Z,74.50
2018-06-12T14:36:08.645Z,72.60
2018-06-12T14:38:36.397Z,69.60
2018-06-12T14:41:04.040Z,70.50
2018-06-12T14:43:37.601Z,69.90
2018-06-12T14:46:05.327Z,69.20
2018-06-12T14:48:32.957Z,69.00
2018-06-12T14:51:00.617Z,70.60
2018-06-12T14:53:28.353Z,71.10
2018-06-12T14:55:55.975Z,70.30
2018-06-12T14:58:23.653Z,72.50
2018-06-12T15:00:51.403Z,72.20
2018-06-12T15:03:19.035Z,72.50
2018-06-12T15:05:46.907Z,73.70
2018-06-12T15:08:14.530Z,72.90
2018-06-12T15:10:46.549Z,72.30
2018-06-12T15:13:15.315Z,72.80
2018-06-12T15:15:43.013Z,72.50
2018-06-12T15:18:10.622Z,71.50
2018-06-12T15:20:38.259Z,71.60
2018-06-12T15:23:05.943Z,71.20
2018-06-12T15:25:33.915Z,71.50
2018-06-12T15:28:01.589Z,71.50
2018-06-12T15:30:29.346Z,71.60
2018-06-12T15:32:57.210Z,72.60
2018-06-12T15:35:24.876Z,73.30
2018-06-12T15:37:52.569Z,72.60
2018-06-12T15:40:20.226Z,73.00
2018-06-12T15:45:34.860Z,73.30
2018-06-12T15:48:03.702Z,73.20
2018-06-12T15:50:31.358Z,73.90
2018-06-12T15:52:59.137Z,74.00
2018-06-12T15:55:27.005Z,72.70
2018-06-12T15:57:54.902Z,73.10
2018-06-12T16:00:23.274Z,74.60
2018-06-12T16:02:52.209Z,74.30
2018-06-12T16:05:26.635Z,73.10
2018-06-12T16:07:56.136Z,73.30
2018-06-12T16:10:24.282Z,73.50
2018-06-12T16:12:53.888Z,73.10
2018-06-12T16:15:22.739Z,73.00
2018-06-12T16:17:50.617Z,72.10
2018-06-12T16:20:18.407Z,72.00
2018-06-12T16:22:46.279Z,71.70
2018-06-12T16:25:15.955Z,71.50
2018-06-12T16:27:45.372Z,70.90
2018-06-12T16:30:14.581Z,71.10
2018-06-12T16:32:45.494Z,71.90
2018-06-12T16:35:15.345Z,71.60
2018-06-12T16:37:45.756Z,72.20
2018-06-12T16:40:16.319Z,71.90
2018-06-12T16:42:47.025Z,68.90
2018-06-12T16:45:16.985Z,67.80
2018-06-12T16:47:45.825Z,69.60
2018-06-12T16:50:17.631Z,68.60
2018-06-12T16:52:46.334Z,68.80
2018-06-12T16:55:17.325Z,69.80
2018-06-12T16:57:45.113Z,69.80
2018-06-12T17:00:15.194Z,69.00
2018-06-12T17:02:46.565Z,70.70
2018-06-12T17:08:16.357Z,70.30
2018-06-12T17:10:47.065Z,70.60
2018-06-12T17:13:18.206Z,71.00
2018-06-12T17:18:44.472Z,71.00
2018-06-12T17:21:18.117Z,71.00
2018-06-12T17:23:47.009Z,71.60
2018-06-12T17:26:16.579Z,72.20
2018-06-12T17:28:44.493Z,72.30
